createdAt,value
2023-03-16T00:01:07.564Z,5.85
2023-03-16T00:03:36.963Z,5.73
2023-03-16T00:06:03.785Z,5.60
2023-03-16T00:08:32.502Z,5.60
2023-03-16T00:10:59.186Z,5.46
2023-03-16T00:13:25.821Z,5.48
2023-03-16T00:15:56.710Z,5.40
2023-03-16T00:18:27.305Z,5.37
2023-03-16T00:20:55.609Z,5.32
2023-03-16T00:23:28.830Z,5.19
2023-03-16T00:25:59.542Z,5.21
2023-03-16T00:28:27.016Z,5.19
2023-03-16T00:30:58.970Z,5.14
2023-03-16T00:33:28.086Z,5.10
2023-03-16T00:36:02.663Z,5.07
2023-03-16T00:38:34.762Z,4.92
2023-03-16T00:41:04.151Z,4.92
2023-03-16T00:43:41.153Z,4.89
2023-03-16T00:46:09.923Z,4.86
2023-03-16T00:48:39.347Z,4.75
2023-03-16T00:51:07.036Z,4.84
2023-03-16T00:53:34.009Z,4.76
2023-03-16T00:56:04.459Z,4.70
2023-03-16T00:58:36.055Z,4.72
2023-03-16T01:01:08.837Z,4.71
2023-03-16T01:03:38.082Z,4.75
2023-03-16T01:06:10.421Z,4.67
2023-03-16T01:08:38.109Z,4.66
2023-03-16T01:11:10.421Z,4.72
2023-03-16T01:13:41.957Z,4.71
2023-03-16T01:16:09.477Z,4.76
2023-03-16T01:18:36.059Z,4.87
2023-03-16T01:21:05.637Z,4.87
2023-03-16T01:23:35.401Z,4.91
2023-03-16T01:26:02.216Z,4.91
2023-03-16T01:28:32.475Z,4.90
2023-03-16T01:31:00.838Z,4.80
2023-03-16T01:33:30.841Z,4.77
2023-03-16T01:36:01.417Z,4.86
2023-03-16T01:38:33.964Z,4.79
2023-03-16T01:41:00.973Z,4.68
2023-03-16T01:43:31.170Z,4.62
2023-03-16T01:46:07.278Z,4.64
2023-03-16T01:48:42.756Z,4.64
2023-03-16T01:51:10.991Z,4.73
2023-03-16T01:53:38.409Z,4.75
2023-03-16T01:56:08.465Z,4.61
2023-03-16T01:58:35.088Z,4.63
2023-03-16T02:01:01.867Z,4.60
2023-03-16T02:03:35.746Z,4.61
2023-03-16T02:06:14.633Z,4.58
2023-03-16T02:08:45.953Z,4.61
2023-03-16T02:11:12.491Z,4.57
2023-03-16T02:13:54.180Z,4.54
2023-03-16T02:16:22.653Z,4.55
2023-03-16T02:18:50.089Z,4.57
2023-03-16T02:21:25.484Z,4.59
2023-03-16T02:23:52.233Z,4.55
2023-03-16T02:26:23.156Z,4.54
2023-03-16T02:29:14.642Z,4.55
2023-03-16T02:31:41.781Z,4.56
2023-03-16T02:34:08.552Z,4.49
2023-03-16T02:36:35.180Z,4.40
2023-03-16T02:39:02.049Z,4.37
2023-03-16T02:41:29.313Z,4.39
2023-03-16T02:44:01.306Z,4.36
2023-03-16T02:46:35.866Z,4.33
2023-03-16T02:49:07.768Z,4.25
2023-03-16T02:51:36.815Z,4.32
2023-03-16T02:54:06.731Z,4.33
2023-03-16T02:56:34.545Z,4.34
2023-03-16T02:59:01.334Z,4.34
2023-03-16T03:01:32.675Z,4.30
2023-03-16T03:04:01.854Z,4.20
2023-03-16T03:06:28.681Z,4.09
2023-03-16T03:08:56.418Z,4.06
2023-03-16T03:11:23.098Z,4.11
2023-03-16T03:13:52.187Z,4.13
2023-03-16T03:16:22.099Z,4.18
2023-03-16T03:18:49.822Z,4.19
2023-03-16T03:21:16.894Z,4.15
2023-03-16T03:23:46.606Z,4.17
2023-03-16T03:26:16.001Z,4.20
2023-03-16T03:28:46.524Z,4.28
2023-03-16T03:31:23.593Z,4.23
2023-03-16T03:33:51.341Z,4.19
2023-03-16T03:36:18.249Z,4.17
2023-03-16T03:38:45.637Z,4.17
2023-03-16T03:41:12.949Z,4.21
2023-03-16T03:43:40.144Z,4.18
2023-03-16T03:46:14.845Z,4.21
2023-03-16T03:48:41.598Z,4.16
2023-03-16T03:51:10.980Z,4.09
2023-03-16T03:53:56.786Z,4.09
2023-03-16T03:56:50.371Z,4.10
2023-03-16T03:59:17.439Z,4.12
2023-03-16T04:02:13.431Z,4.13
2023-03-16T04:04:48.767Z,4.19
2023-03-16T04:07:16.084Z,4.20
2023-03-16T04:09:45.764Z,4.26
2023-03-16T04:12:31.151Z,4.27
2023-03-16T04:14:58.181Z,4.30
2023-03-16T04:17:27.774Z,4.31
2023-03-16T04:19:58.963Z,4.31
2023-03-16T04:22:27.002Z,4.30
2023-03-16T04:24:56.874Z,4.21
2023-03-16T04:27:25.417Z,4.17
2023-03-16T04:29:58.769Z,4.14
2023-03-16T04:32:26.532Z,4.17
2023-03-16T04:34:56.651Z,4.15
2023-03-16T04:37:32.226Z,4.21
2023-03-16T04:39:59.509Z,4.25
2023-03-16T04:42:26.284Z,4.29
2023-03-16T04:44:52.932Z,4.29
2023-03-16T04:47:20.637Z,4.31
2023-03-16T04:49:49.413Z,4.40
2023-03-16T04:52:18.464Z,4.35
2023-03-16T04:54:45.682Z,4.31
2023-03-16T04:57:19.434Z,4.38
2023-03-16T04:59:49.604Z,4.43
2023-03-16T05:02:38.781Z,4.46
2023-03-16T05:05:05.863Z,4.35
2023-03-16T05:07:33.533Z,4.36
2023-03-16T05:10:00.142Z,4.42
2023-03-16T05:12:26.901Z,4.43
2023-03-16T05:14:59.218Z,4.39
2023-03-16T05:17:36.807Z,4.45
2023-03-16T05:20:08.433Z,4.40
2023-03-16T05:22:42.095Z,4.36
2023-03-16T05:25:16.669Z,4.32
2023-03-16T05:27:51.417Z,4.32
2023-03-16T05:30:31.232Z,4.27
2023-03-16T05:33:03.049Z,4.21
2023-03-16T05:35:32.517Z,4.23
2023-03-16T05:38:04.277Z,4.22
2023-03-16T05:40:33.541Z,4.29
2023-03-16T05:43:14.809Z,4.35
2023-03-16T05:45:46.573Z,4.43
2023-03-16T05:48:16.492Z,4.43
2023-03-16T05:50:51.739Z,4.45
2023-03-16T05:53:28.791Z,4.47
2023-03-16T05:56:01.361Z,4.53
2023-03-16T05:58:38.334Z,4.48
2023-03-16T06:01:09.637Z,4.57
2023-03-16T06:03:39.127Z,4.71
2023-03-16T06:06:08.460Z,4.85
2023-03-16T06:08:46.058Z,4.87
2023-03-16T06:11:18.535Z,4.93
2023-03-16T06:13:45.783Z,4.87
2023-03-16T06:16:16.937Z,4.98
2023-03-16T06:18:43.743Z,5.00
2023-03-16T06:21:13.481Z,5.00
2023-03-16T06:23:41.141Z,5.16
2023-03-16T06:26:09.064Z,5.29
2023-03-16T06:28:38.027Z,5.41
2023-03-16T06:31:07.743Z,5.40
2023-03-16T06:33:36.034Z,5.48
2023-03-16T06:36:05.631Z,5.48
2023-03-16T06:38:40.786Z,5.67
2023-03-16T06:41:21.766Z,5.69
2023-03-16T06:43:48.502Z,5.71
2023-03-16T06:46:18.007Z,5.63
2023-03-16T06:48:46.804Z,5.57
2023-03-16T06:51:15.682Z,5.65
2023-03-16T06:53:47.596Z,5.75
2023-03-16T06:56:16.797Z,5.72
2023-03-16T06:58:45.478Z,5.79
2023-03-16T07:01:12.704Z,6.02
2023-03-16T07:03:39.683Z,6.10
2023-03-16T07:06:15.429Z,6.27
2023-03-16T07:08:46.831Z,6.25
2023-03-16T07:11:15.004Z,6.38
2023-03-16T07:13:42.053Z,6.51
2023-03-16T07:16:09.102Z,6.41
2023-03-16T07:18:38.107Z,6.52
2023-03-16T07:21:07.172Z,6.52
2023-03-16T07:23:36.250Z,6.57
2023-03-16T07:26:08.642Z,6.41
2023-03-16T07:28:41.748Z,6.48
2023-03-16T07:31:09.597Z,6.74
2023-03-16T07:33:42.003Z,6.76
2023-03-16T07:36:15.303Z,6.68
2023-03-16T07:38:48.419Z,6.63
2023-03-16T07:41:15.450Z,6.65
2023-03-16T07:43:42.141Z,6.66
2023-03-16T07:46:14.149Z,6.78
2023-03-16T07:48:44.138Z,6.98
2023-03-16T07:51:12.139Z,7.09
2023-03-16T07:53:39.275Z,6.99
2023-03-16T07:56:19.490Z,6.90
2023-03-16T07:58:51.450Z,6.99
2023-03-16T08:01:18.438Z,7.16
2023-03-16T08:03:48.499Z,7.22
2023-03-16T08:06:15.435Z,7.30
2023-03-16T08:08:43.239Z,7.44
2023-03-16T08:11:23.731Z,7.58
2023-03-16T08:13:56.677Z,7.72
2023-03-16T08:16:28.673Z,7.95
2023-03-16T08:19:03.981Z,8.13
2023-03-16T08:21:30.649Z,8.05
2023-03-16T08:23:58.131Z,8.10
2023-03-16T08:26:27.551Z,8.04
2023-03-16T08:29:02.673Z,8.15
2023-03-16T08:31:35.191Z,8.29
2023-03-16T08:34:08.031Z,8.54
2023-03-16T08:36:39.702Z,8.65
2023-03-16T08:39:07.719Z,8.78
2023-03-16T08:41:42.930Z,8.81
2023-03-16T08:44:23.940Z,9.04
2023-03-16T08:46:52.897Z,9.15
2023-03-16T08:49:24.297Z,9.28
2023-03-16T08:52:00.902Z,9.39
2023-03-16T08:54:27.630Z,9.61
2023-03-16T08:56:54.906Z,9.72
2023-03-16T08:59:29.776Z,9.73
2023-03-16T09:01:57.431Z,9.54
2023-03-16T09:04:24.148Z,9.66
2023-03-16T09:07:10.000Z,9.79
2023-03-16T09:09:37.049Z,9.75
2023-03-16T09:12:04.436Z,9.67
2023-03-16T09:14:31.256Z,9.76
2023-03-16T09:16:58.517Z,9.49
2023-03-16T09:19:30.651Z,9.50
2023-03-16T09:22:01.467Z,9.83
2023-03-16T09:24:30.982Z,9.95
2023-03-16T09:27:00.238Z,9.81
2023-03-16T09:29:29.453Z,9.68
2023-03-16T09:31:58.677Z,10.07
2023-03-16T09:36:55.381Z,9.97
2023-03-16T09:39:24.171Z,9.83
2023-03-16T09:41:59.274Z,9.46
2023-03-16T09:44:32.054Z,8.95
2023-03-16T09:47:01.093Z,9.30
2023-03-16T09:49:31.375Z,9.87
2023-03-16T09:59:23.359Z,11.16
2023-03-16T10:02:04.485Z,11.42
2023-03-16T10:04:40.960Z,11.80
2023-03-16T10:07:13.595Z,12.08
2023-03-16T10:09:46.056Z,12.07
2023-03-16T10:12:13.702Z,12.18
2023-03-16T10:14:40.374Z,12.46
2023-03-16T10:17:08.722Z,12.57
2023-03-16T10:23:36.268Z,12.80
2023-03-16T10:26:07.243Z,13.12
2023-03-16T10:28:39.708Z,13.38
2023-03-16T10:31:09.931Z,13.68
2023-03-16T10:33:42.199Z,13.98
2023-03-16T10:36:17.160Z,14.31
2023-03-16T10:38:47.015Z,14.38
2023-03-16T10:41:19.219Z,14.54
2023-03-16T10:43:49.202Z,14.70
2023-03-16T10:46:18.906Z,14.89
2023-03-16T10:49:01.683Z,14.80
2023-03-16T10:51:29.907Z,14.60
2023-03-16T10:54:16.972Z,14.61
2023-03-16T10:56:43.747Z,14.63
2023-03-16T10:59:15.395Z,14.80
2023-03-16T11:01:45.381Z,15.27
2023-03-16T11:04:13.796Z,15.82
2023-03-16T11:06:47.585Z,16.16
2023-03-16T11:09:14.520Z,16.40
2023-03-16T11:11:46.628Z,16.74
2023-03-16T11:14:15.712Z,17.12
2023-03-16T11:16:54.242Z,17.22
2023-03-16T11:19:26.351Z,17.08
2023-03-16T11:21:59.196Z,17.29
2023-03-16T11:24:47.756Z,17.40
2023-03-16T11:27:24.688Z,17.63
2023-03-16T11:30:05.868Z,17.82
2023-03-16T11:32:40.371Z,18.41
2023-03-16T11:35:18.165Z,18.79
2023-03-16T11:38:04.309Z,19.07
2023-03-16T11:40:49.939Z,18.53
2023-03-16T11:43:16.644Z,18.16
2023-03-16T11:46:02.806Z,17.91
2023-03-16T11:48:36.665Z,18.00
2023-03-16T11:51:03.947Z,18.44
2023-03-16T11:53:35.550Z,18.58
2023-03-16T11:56:14.172Z,18.39
2023-03-16T11:58:43.778Z,18.27
2023-03-16T12:01:19.878Z,18.41
2023-03-16T12:03:59.278Z,18.23
2023-03-16T12:06:35.664Z,18.34
2023-03-16T12:09:08.645Z,18.81
2023-03-16T12:11:46.942Z,18.95
2023-03-16T12:14:32.453Z,19.40
2023-03-16T12:17:03.064Z,19.76
2023-03-16T12:19:30.655Z,19.80
2023-03-16T12:22:18.025Z,19.77
2023-03-16T12:24:45.615Z,20.04
2023-03-16T12:27:14.503Z,20.35
2023-03-16T12:29:42.835Z,20.38
2023-03-16T12:32:20.818Z,20.71
2023-03-16T12:34:56.283Z,21.09
2023-03-16T12:37:27.599Z,20.68
2023-03-16T12:39:57.242Z,20.45
2023-03-16T12:42:24.708Z,20.12
2023-03-16T12:44:58.838Z,19.77
2023-03-16T12:47:28.620Z,19.92
2023-03-16T12:49:56.969Z,20.37
2023-03-16T12:52:26.214Z,20.94
2023-03-16T12:54:53.968Z,21.47
2023-03-16T12:57:20.832Z,21.77
2023-03-16T12:59:47.980Z,21.99
2023-03-16T13:02:20.879Z,22.04
2023-03-16T13:04:55.239Z,22.07
2023-03-16T13:07:25.851Z,21.96
2023-03-16T13:09:54.171Z,21.68
2023-03-16T13:12:32.652Z,21.28
2023-03-16T13:15:02.309Z,20.74
2023-03-16T13:17:32.056Z,20.69
2023-03-16T13:20:00.319Z,21.35
2023-03-16T13:22:35.738Z,21.01
2023-03-16T13:25:22.520Z,20.18
2023-03-16T13:27:55.599Z,20.36
2023-03-16T13:30:23.513Z,20.80
2023-03-16T13:32:53.987Z,21.23
2023-03-16T13:35:20.636Z,21.84
2023-03-16T13:37:49.756Z,22.08
2023-03-16T13:40:23.953Z,23.13
2023-03-16T13:42:55.064Z,24.18
2023-03-16T13:45:29.028Z,24.48
2023-03-16T13:47:55.617Z,25.57
2023-03-16T13:50:22.730Z,26.01
2023-03-16T13:52:56.188Z,26.66
2023-03-16T13:55:25.788Z,26.94
2023-03-16T13:57:52.690Z,25.45
2023-03-16T14:00:22.433Z,25.61
2023-03-16T14:02:55.041Z,26.33
2023-03-16T14:05:26.173Z,27.71
2023-03-16T14:07:55.286Z,28.13
2023-03-16T14:10:22.435Z,28.40
2023-03-16T14:12:56.001Z,29.18
2023-03-16T14:15:23.907Z,30.38
2023-03-16T14:17:51.402Z,31.64
2023-03-16T14:20:25.577Z,31.96
2023-03-16T14:22:52.906Z,32.82
2023-03-16T14:25:22.779Z,33.73
2023-03-16T14:27:51.962Z,33.84
2023-03-16T14:30:24.168Z,33.78
2023-03-16T14:32:58.456Z,32.11
2023-03-16T14:35:32.347Z,31.40
2023-03-16T14:38:18.682Z,30.48
2023-03-16T14:40:55.397Z,30.77
2023-03-16T14:43:27.367Z,30.88
2023-03-16T14:45:53.989Z,31.14
2023-03-16T14:48:20.955Z,29.86
2023-03-16T14:50:49.896Z,30.69
2023-03-16T14:53:18.616Z,31.29
2023-03-16T14:55:45.423Z,31.70
2023-03-16T14:58:14.373Z,31.80
2023-03-16T15:00:52.408Z,31.49
2023-03-16T15:03:22.834Z,31.65
2023-03-16T15:05:52.035Z,32.03
2023-03-16T15:08:26.614Z,31.51
2023-03-16T15:10:54.364Z,30.73
2023-03-16T15:13:37.303Z,31.13
2023-03-16T15:16:05.834Z,30.47
2023-03-16T15:18:37.636Z,29.55
2023-03-16T15:21:06.630Z,29.44
2023-03-16T15:23:35.629Z,29.28
2023-03-16T15:26:07.517Z,28.84
2023-03-16T15:28:37.117Z,28.65
2023-03-16T15:31:04.200Z,28.68
2023-03-16T15:33:31.211Z,28.84
2023-03-16T15:35:58.729Z,27.75
2023-03-16T15:38:29.506Z,27.91
2023-03-16T15:40:56.103Z,27.81
2023-03-16T15:43:24.970Z,27.51
2023-03-16T15:45:54.830Z,27.47
2023-03-16T15:48:24.519Z,27.16
2023-03-16T15:50:56.703Z,27.01
2023-03-16T15:53:30.341Z,27.29
2023-03-16T15:56:02.006Z,26.48
2023-03-16T15:58:28.741Z,25.93
2023-03-16T16:00:55.688Z,25.90
2023-03-16T16:03:22.606Z,26.02
2023-03-16T16:05:52.076Z,25.46
2023-03-16T16:08:21.505Z,25.03
2023-03-16T16:10:51.082Z,24.30
2023-03-16T16:13:44.310Z,24.16
2023-03-16T16:16:18.380Z,23.46
2023-03-16T16:18:46.732Z,22.44
2023-03-16T16:21:24.569Z,21.82
2023-03-16T16:23:53.853Z,21.30
2023-03-16T16:26:23.332Z,20.68
2023-03-16T16:28:53.099Z,20.24
2023-03-16T16:31:22.247Z,19.71
2023-03-16T16:33:49.504Z,19.25
2023-03-16T16:36:21.137Z,18.52
2023-03-16T16:38:48.587Z,18.19
2023-03-16T16:41:23.691Z,17.60
2023-03-16T16:43:51.157Z,17.25
2023-03-16T16:46:19.013Z,17.06
2023-03-16T16:48:46.582Z,16.62
2023-03-16T16:51:23.539Z,16.38
2023-03-16T16:53:51.111Z,16.13
2023-03-16T16:56:18.584Z,15.84
2023-03-16T16:58:46.032Z,15.66
2023-03-16T17:01:26.042Z,15.07
2023-03-16T17:03:52.901Z,14.69
2023-03-16T17:06:19.645Z,14.54
2023-03-16T17:08:50.054Z,14.17
2023-03-16T17:11:24.253Z,13.94
2023-03-16T17:13:51.234Z,13.68
2023-03-16T17:16:22.076Z,13.59
2023-03-16T17:18:51.555Z,13.52
2023-03-16T17:21:21.562Z,13.39
2023-03-16T17:23:50.583Z,13.24
2023-03-16T17:26:19.273Z,13.02
2023-03-16T17:28:47.382Z,12.75
2023-03-16T17:31:18.612Z,12.68
2023-03-16T17:33:45.349Z,12.54
2023-03-16T17:36:14.741Z,12.47
2023-03-16T17:38:41.667Z,12.39
2023-03-16T17:41:12.021Z,12.31
2023-03-16T17:43:41.820Z,12.27
2023-03-16T17:46:10.998Z,12.16
2023-03-16T17:48:40.303Z,12.05
2023-03-16T17:51:10.574Z,11.90
2023-03-16T17:53:39.900Z,11.75
2023-03-16T17:56:13.717Z,11.64
2023-03-16T17:58:40.797Z,11.58
2023-03-16T18:01:07.435Z,11.50
2023-03-16T18:03:35.268Z,11.38
2023-03-16T18:06:01.873Z,11.37
2023-03-16T18:08:29.210Z,11.28
2023-03-16T18:11:02.720Z,11.18
2023-03-16T18:13:29.722Z,11.12
2023-03-16T18:15:57.738Z,11.00
2023-03-16T18:18:28.422Z,10.90
2023-03-16T18:20:57.048Z,10.81
2023-03-16T18:23:27.877Z,10.77
2023-03-16T18:26:01.224Z,10.76
2023-03-16T18:28:28.784Z,10.72
2023-03-16T18:31:00.393Z,10.67
2023-03-16T18:33:28.709Z,10.64
2023-03-16T18:36:01.243Z,10.55
2023-03-16T18:38:34.814Z,10.46
2023-03-16T18:41:19.764Z,10.33
2023-03-16T18:43:49.395Z,10.18
2023-03-16T18:46:19.511Z,10.10
2023-03-16T18:48:46.775Z,10.06
2023-03-16T18:51:16.049Z,9.99
2023-03-16T18:53:43.145Z,9.97
2023-03-16T18:56:19.980Z,9.92
2023-03-16T18:58:47.961Z,9.81
2023-03-16T19:01:25.196Z,9.58
2023-03-16T19:03:54.647Z,9.46
2023-03-16T19:06:31.623Z,9.42
2023-03-16T19:09:03.633Z,9.42
2023-03-16T19:11:33.327Z,9.45
2023-03-16T19:13:59.972Z,9.45
2023-03-16T19:16:27.237Z,9.35
2023-03-16T19:18:56.820Z,9.15
2023-03-16T19:21:23.845Z,9.04
2023-03-16T19:24:01.001Z,8.95
2023-03-16T19:26:30.188Z,8.90
2023-03-16T19:28:59.220Z,8.77
2023-03-16T19:31:29.353Z,8.60
2023-03-16T19:33:57.103Z,8.51
2023-03-16T19:36:24.837Z,8.53
2023-03-16T19:38:52.245Z,8.58
2023-03-16T19:41:24.343Z,8.60
2023-03-16T19:43:51.594Z,8.53
2023-03-16T19:46:18.496Z,8.57
2023-03-16T19:48:50.569Z,8.54
2023-03-16T19:51:18.182Z,8.42
2023-03-16T19:53:45.114Z,8.34
2023-03-16T19:56:18.385Z,8.28
2023-03-16T19:58:48.459Z,8.24
2023-03-16T20:01:25.602Z,8.29
2023-03-16T20:03:54.558Z,8.34
2023-03-16T20:06:22.153Z,8.19
2023-03-16T20:08:49.218Z,8.10
2023-03-16T20:11:19.107Z,8.02
2023-03-16T20:13:46.839Z,7.94
2023-03-16T20:16:14.764Z,7.99
2023-03-16T20:18:41.403Z,7.98
2023-03-16T20:21:14.063Z,7.92
2023-03-16T20:23:41.259Z,7.82
2023-03-16T20:26:11.435Z,7.73
2023-03-16T20:28:38.400Z,7.66
2023-03-16T20:31:08.495Z,7.49
2023-03-16T20:33:38.615Z,7.44
2023-03-16T20:36:05.747Z,7.39
2023-03-16T20:38:32.487Z,7.50
2023-03-16T20:40:59.421Z,7.64
2023-03-16T20:43:30.578Z,7.68
2023-03-16T20:45:58.731Z,7.61
2023-03-16T20:48:29.377Z,7.46
2023-03-16T20:50:57.214Z,7.48
2023-03-16T20:53:23.881Z,7.56
2023-03-16T20:56:11.128Z,7.60
2023-03-16T20:58:38.079Z,7.55
2023-03-16T21:04:25.209Z,7.48
2023-03-16T21:07:22.160Z,7.44
2023-03-16T21:10:05.095Z,7.36
2023-03-16T21:12:34.154Z,7.31
2023-03-16T21:15:07.493Z,7.24
2023-03-16T21:17:36.744Z,7.28
2023-03-16T21:20:14.058Z,7.45
2023-03-16T21:22:44.478Z,7.58
2023-03-16T21:25:21.622Z,7.61
2023-03-16T21:27:49.737Z,7.50
2023-03-16T21:30:30.798Z,7.50
2023-03-16T21:33:02.905Z,7.51
2023-03-16T21:38:49.361Z,7.44
2023-03-16T21:41:17.054Z,7.54
2023-03-16T21:43:43.767Z,7.41
2023-03-16T21:46:13.895Z,7.17
2023-03-16T21:48:41.235Z,7.22
2023-03-16T21:51:35.001Z,7.13
2023-03-16T21:54:07.939Z,7.19
2023-03-16T21:56:36.262Z,7.22
2023-03-16T21:59:02.877Z,7.24
2023-03-16T22:01:32.286Z,7.37
2023-03-16T22:04:02.215Z,7.42
2023-03-16T22:06:29.049Z,7.39
2023-03-16T22:08:59.115Z,7.34
2023-03-16T22:11:29.576Z,7.18
2023-03-16T22:13:59.220Z,7.27
2023-03-16T22:16:32.574Z,7.15
2023-03-16T22:18:59.351Z,6.94
2023-03-16T22:21:35.431Z,6.91
2023-03-16T22:24:03.093Z,6.82
2023-03-16T22:26:32.551Z,6.86
2023-03-16T22:28:59.799Z,6.91
2023-03-16T22:31:38.915Z,6.90
2023-03-16T22:34:06.234Z,6.92
2023-03-16T22:36:32.926Z,6.95
2023-03-16T22:39:00.353Z,7.05
2023-03-16T22:41:27.027Z,7.05
2023-03-16T22:43:56.363Z,7.03
2023-03-16T22:46:26.981Z,6.99
2023-03-16T22:48:54.124Z,7.00
2023-03-16T22:51:20.738Z,7.05
2023-03-16T22:53:49.594Z,7.04
2023-03-16T22:56:18.957Z,7.06
2023-03-16T22:58:46.883Z,7.00
2023-03-16T23:01:23.131Z,6.93
2023-03-16T23:03:53.767Z,6.74
2023-03-16T23:06:22.012Z,6.76
2023-03-16T23:08:54.655Z,6.76
2023-03-16T23:11:26.145Z,6.69
2023-03-16T23:13:56.135Z,6.65
2023-03-16T23:16:26.687Z,6.66
2023-03-16T23:18:53.469Z,6.65
2023-03-16T23:21:23.456Z,6.59
2023-03-16T23:24:03.199Z,6.59
2023-03-16T23:26:30.760Z,6.59
2023-03-16T23:28:57.542Z,6.61
2023-03-16T23:31:24.543Z,6.58
2023-03-16T23:33:51.368Z,6.48
2023-03-16T23:36:19.294Z,6.54
2023-03-16T23:38:48.737Z,6.48
2023-03-16T23:41:19.226Z,6.42
2023-03-16T23:43:48.404Z,6.46
2023-03-16T23:46:16.481Z,6.46
2023-03-16T23:48:43.441Z,6.53
2023-03-16T23:51:20.313Z,6.49
2023-03-16T23:53:47.432Z,6.48
2023-03-16T23:56:14.163Z,6.45
2023-03-16T23:58:40.907Z,6.43
